createdAt,value
2019-05-17T07:47:40.936Z,4.10
2019-05-17T07:50:11.305Z,5.35
2019-05-17T07:52:39.912Z,7.12
2019-05-17T07:59:39.721Z,5.00
2019-05-17T08:57:31.864Z,7.20
2019-05-17T09:00:05.058Z,6.92
2019-05-17T09:02:35.904Z,6.15
2019-05-17T09:50:12.493Z,3.77
2019-05-17T09:54:45.762Z,4.28
2019-05-17T09:57:14.235Z,6.03
2019-05-17T09:59:43.367Z,3.58
2019-05-17T10:02:11.591Z,3.25
2019-05-17T10:04:40.071Z,5.85
2019-05-17T10:07:10.235Z,4.45
2019-05-17T10:09:40.021Z,3.55
2019-05-17T10:12:09.545Z,4.22
2019-05-17T10:14:38.773Z,3.83
2019-05-17T10:17:09.726Z,3.37
2019-05-17T10:19:40.039Z,3.60
2019-05-17T10:22:10.184Z,3.87
2019-05-17T10:24:39.670Z,3.85
2019-05-17T10:27:10.739Z,4.20
2019-05-17T10:29:39.493Z,3.80
2019-05-17T10:32:10.345Z,4.03
2019-05-17T10:34:40.009Z,5.62
2019-05-17T10:37:10.306Z,3.70
2019-05-17T10:39:41.167Z,4.67
2019-05-17T10:42:10.033Z,5.60
2019-05-17T10:44:44.329Z,3.40
2019-05-17T10:47:10.059Z,4.03
2019-05-17T10:49:40.138Z,4.37
2019-05-17T10:52:09.509Z,3.63
2019-05-17T10:54:40.237Z,8.45
2019-05-17T10:57:10.497Z,4.45
2019-05-17T10:59:39.675Z,4.12
2019-05-17T11:02:09.950Z,4.45
2019-05-17T11:04:40.187Z,4.95
2019-05-17T11:07:10.417Z,4.03
2019-05-17T11:09:40.289Z,4.80
2019-05-17T11:12:08.973Z,4.65
2019-05-17T11:14:52.261Z,4.10
2019-05-17T11:17:18.346Z,4.25
2019-05-17T11:21:54.500Z,4.57
2019-05-17T11:24:23.043Z,4.30
2019-05-17T11:26:56.356Z,8.50
2019-05-17T11:29:26.549Z,6.05
2019-05-17T11:31:57.698Z,4.97
2019-05-17T11:34:27.436Z,4.97
2019-05-17T11:36:57.206Z,4.70
2019-05-17T11:39:26.596Z,5.00
2019-05-17T11:41:59.755Z,5.47
2019-05-17T11:44:29.333Z,5.67
2019-05-17T11:46:58.617Z,5.53
2019-05-17T11:49:31.918Z,5.03
2019-05-17T11:52:01.682Z,4.22
2019-05-17T11:54:35.076Z,6.30
2019-05-17T11:57:12.191Z,5.60
2019-05-17T11:59:41.128Z,5.65
2019-05-17T12:02:12.498Z,5.12
2019-05-17T12:04:45.840Z,7.40
2019-05-17T12:07:19.221Z,5.70
2019-05-17T12:09:47.574Z,6.67
2019-05-17T12:12:20.655Z,6.42
2019-05-17T12:14:54.135Z,27.40
2019-05-17T12:17:23.201Z,6.62
2019-05-17T12:19:54.377Z,6.60
2019-05-17T12:22:27.653Z,7.00
2019-05-17T12:25:01.052Z,6.12
2019-05-17T12:27:34.670Z,6.17
2019-05-17T12:30:04.517Z,7.20
2019-05-17T12:32:37.922Z,7.22
2019-05-17T12:35:07.058Z,6.97
2019-05-17T12:37:37.239Z,7.30
2019-05-17T12:40:10.420Z,8.48
2019-05-17T12:42:39.534Z,7.10
2019-05-17T12:45:12.844Z,7.62
2019-05-17T12:55:00.469Z,6.70
2019-05-17T12:57:29.599Z,6.35
2019-05-17T12:59:59.212Z,7.22
2019-05-17T13:02:28.319Z,6.40
2019-05-17T13:04:57.357Z,6.95
2019-05-17T13:07:27.831Z,7.20
2019-05-17T13:09:57.164Z,7.35
2019-05-17T13:12:27.423Z,7.30
2019-05-17T13:14:57.357Z,7.15
2019-05-17T13:17:27.538Z,7.30
2019-05-17T13:20:00.525Z,7.47
2019-05-17T13:22:33.892Z,7.80
2019-05-17T13:25:06.070Z,7.08
2019-05-17T13:27:38.581Z,7.47
2019-05-17T13:30:05.364Z,8.03
2019-05-17T13:32:34.206Z,7.73
2019-05-17T13:35:03.413Z,7.47
2019-05-17T13:37:37.924Z,7.17
2019-05-17T13:40:11.068Z,7.08
2019-05-17T13:42:40.308Z,7.10
2019-05-17T13:45:11.043Z,6.50
2019-05-17T13:47:39.854Z,8.85
2019-05-17T13:50:08.905Z,7.00
2019-05-17T13:52:42.608Z,7.03
2019-05-17T13:55:11.884Z,8.98
2019-05-17T13:57:40.921Z,7.00
2019-05-17T14:00:13.521Z,6.47
2019-05-17T14:02:47.173Z,6.72
2019-05-17T14:05:20.703Z,7.50
2019-05-17T14:07:50.878Z,7.22
2019-05-17T14:10:27.623Z,7.40
2019-05-17T14:12:50.684Z,7.05
2019-05-17T14:59:45.800Z,12.87
2019-05-17T15:02:13.646Z,13.60
2019-05-17T15:04:41.339Z,13.68
2019-05-17T15:07:11.281Z,13.48
2019-05-17T15:09:38.390Z,15.13
2019-05-17T15:12:06.112Z,14.13
2019-05-17T15:14:33.773Z,15.70
2019-05-17T15:17:01.463Z,14.53
2019-05-17T15:19:29.220Z,15.20
2019-05-17T15:21:56.872Z,13.75
2019-05-17T15:24:24.541Z,15.53
2019-05-17T15:27:04.745Z,15.33
2019-05-17T15:29:21.654Z,14.33
2019-05-17T15:31:52.002Z,15.17
2019-05-17T15:34:18.745Z,12.98
2019-05-17T15:36:46.425Z,14.23
2019-05-17T15:39:14.080Z,12.03
2019-05-17T15:41:41.785Z,12.10
2019-05-17T15:44:09.454Z,15.30
2019-05-17T15:46:37.113Z,11.53
2019-05-17T15:49:04.796Z,12.73
2019-05-17T15:51:32.653Z,12.20
2019-05-17T15:54:00.293Z,14.53
2019-05-17T15:56:27.950Z,12.37
2019-05-17T15:58:55.990Z,14.27
2019-05-17T16:01:23.647Z,14.13
2019-05-17T16:03:51.307Z,13.67
2019-05-17T16:06:19.006Z,13.90
2019-05-17T16:08:46.740Z,14.13
2019-05-17T16:11:14.407Z,13.80
2019-05-17T16:13:42.081Z,11.83
2019-05-17T16:16:09.733Z,11.77
2019-05-17T16:18:37.493Z,12.97
2019-05-17T16:21:05.169Z,11.60
2019-05-17T16:23:32.857Z,11.23
2019-05-17T16:26:00.495Z,11.07
2019-05-17T16:28:28.169Z,10.90
2019-05-17T16:30:55.928Z,9.80
2019-05-17T16:33:23.581Z,9.50
2019-05-17T16:35:51.227Z,9.23
2019-05-17T16:38:18.892Z,7.80
2019-05-17T16:40:46.526Z,6.47
2019-05-17T16:43:18.235Z,7.10
2019-05-17T16:45:43.753Z,6.80
2019-05-17T16:48:11.422Z,6.53
2019-05-17T16:50:39.088Z,8.17
2019-05-17T16:53:06.764Z,6.50
2019-05-17T16:55:34.484Z,6.20
2019-05-17T16:58:02.243Z,6.20
2019-05-17T17:00:30.095Z,6.27
2019-05-17T17:02:57.746Z,5.30
2019-05-17T17:05:25.427Z,5.20
2019-05-17T17:07:53.360Z,5.35
2019-05-17T17:10:21.179Z,5.10
2019-05-17T17:12:48.941Z,4.93
2019-05-17T17:15:16.584Z,4.42
2019-05-17T17:17:44.235Z,6.93
2019-05-17T17:20:11.884Z,5.10
2019-05-17T17:22:39.539Z,5.17
2019-05-17T17:25:07.273Z,4.80
2019-05-17T17:27:34.935Z,6.57
2019-05-17T17:30:02.585Z,4.60
2019-05-17T17:32:30.224Z,5.00
2019-05-17T17:34:57.863Z,5.27
2019-05-17T17:37:25.605Z,5.63
2019-05-17T17:39:53.545Z,5.07
2019-05-17T17:42:21.301Z,5.70
2019-05-17T17:44:48.965Z,5.07
2019-05-17T17:47:16.681Z,5.83
2019-05-17T17:49:44.336Z,5.90
2019-05-17T17:52:11.989Z,6.03
2019-05-17T17:54:39.642Z,5.97
2019-05-17T17:57:07.301Z,6.33
2019-05-17T17:59:35.033Z,6.10
2019-05-17T18:02:02.682Z,5.37
2019-05-17T18:04:30.338Z,6.30
2019-05-17T18:06:58.072Z,6.10
2019-05-17T18:09:25.723Z,5.37
2019-05-17T18:11:53.468Z,6.20
2019-05-17T18:14:21.120Z,5.37
2019-05-17T18:16:48.775Z,6.45
2019-05-17T18:19:16.418Z,5.87
2019-05-17T18:21:44.079Z,6.53
2019-05-17T18:24:11.741Z,5.40
2019-05-17T18:26:39.451Z,6.15
2019-05-17T18:29:08.095Z,6.83
2019-05-17T18:31:35.986Z,5.80
2019-05-17T18:34:03.642Z,7.77
2019-05-17T18:36:31.292Z,5.70
2019-05-17T18:38:58.929Z,5.80
2019-05-17T18:41:26.591Z,7.17
2019-05-17T18:43:54.231Z,6.17
2019-05-17T18:46:21.894Z,5.80
2019-05-17T18:48:49.531Z,6.10
2019-05-17T18:51:17.188Z,5.33
2019-05-17T18:53:44.834Z,6.40
2019-05-17T18:56:12.524Z,6.00
2019-05-17T18:58:40.166Z,5.77
2019-05-17T19:01:07.828Z,7.07
2019-05-17T19:03:35.480Z,6.43
2019-05-17T19:06:03.140Z,6.13
2019-05-17T19:08:30.788Z,6.65
2019-05-17T19:10:58.456Z,7.37
2019-05-17T19:13:26.115Z,7.08
2019-05-17T19:15:53.789Z,7.50
2019-05-17T19:18:21.436Z,9.73
2019-05-17T19:20:49.109Z,11.38
2019-05-17T19:23:16.776Z,7.33
2019-05-17T19:25:44.442Z,9.27
2019-05-17T19:28:12.182Z,8.73
2019-05-17T19:30:39.830Z,10.50
2019-05-17T19:33:07.867Z,7.80
2019-05-17T19:35:35.519Z,8.53
2019-05-17T19:38:03.242Z,8.17
2019-05-17T19:40:30.940Z,8.60
2019-05-17T19:42:58.591Z,7.17
2019-05-17T19:45:26.244Z,9.70
2019-05-17T19:47:53.884Z,7.10
2019-05-17T19:50:21.532Z,8.47
2019-05-17T19:52:49.191Z,8.37
2019-05-17T19:55:16.847Z,7.70
2019-05-17T19:57:44.487Z,7.37
2019-05-17T20:00:12.316Z,8.50
2019-05-17T20:02:39.996Z,7.47
2019-05-17T20:05:07.653Z,7.17
2019-05-17T20:07:38.538Z,7.83
2019-05-17T20:10:04.704Z,7.83
2019-05-17T20:12:32.361Z,9.10
2019-05-17T20:15:15.954Z,8.27
2019-05-17T20:17:29.388Z,7.60
2019-05-17T20:19:57.024Z,8.03
2019-05-17T20:22:24.682Z,11.97
2019-05-17T20:24:52.335Z,8.10
2019-05-17T20:27:19.989Z,8.43
2019-05-17T20:29:47.619Z,8.83
2019-05-17T20:32:15.285Z,11.40
2019-05-17T20:34:42.938Z,10.50
2019-05-17T20:37:10.638Z,9.17
2019-05-17T20:39:38.282Z,8.90
2019-05-17T20:42:05.952Z,9.43
2019-05-17T20:44:33.593Z,11.87
2019-05-17T20:47:01.309Z,10.43
2019-05-17T20:49:28.947Z,9.40
2019-05-17T20:51:56.613Z,14.20
2019-05-17T20:54:24.256Z,10.33
2019-05-17T20:56:51.920Z,10.53
2019-05-17T20:59:19.647Z,10.43
2019-05-17T21:01:47.313Z,10.50
2019-05-17T21:04:14.964Z,11.17
2019-05-17T21:06:42.616Z,10.93
2019-05-17T21:09:10.268Z,9.77
2019-05-17T21:11:37.928Z,11.60
2019-05-17T21:14:05.580Z,10.40
2019-05-17T21:16:33.235Z,13.00
2019-05-17T21:19:00.891Z,14.53
2019-05-17T21:21:28.664Z,13.13
2019-05-17T21:23:56.324Z,12.73
2019-05-17T21:26:23.984Z,12.30
2019-05-17T21:28:51.649Z,12.77
2019-05-17T21:31:19.307Z,12.27
2019-05-17T21:33:46.969Z,13.97
2019-05-17T21:36:14.614Z,13.07
2019-05-17T21:38:42.271Z,16.83
2019-05-17T21:41:09.999Z,13.77
2019-05-17T21:43:37.669Z,16.27
2019-05-17T21:46:05.333Z,16.73
2019-05-17T21:48:33.003Z,14.00
2019-05-17T21:51:00.666Z,12.67
2019-05-17T21:53:28.349Z,13.97
2019-05-17T21:55:56.088Z,13.33
2019-05-17T21:58:23.748Z,14.87
2019-05-17T22:00:53.094Z,12.37
2019-05-17T22:03:20.767Z,13.73
2019-05-17T22:05:48.417Z,12.70
2019-05-17T22:08:16.123Z,14.00
2019-05-17T22:10:43.780Z,13.37
2019-05-17T22:13:11.449Z,12.70
2019-05-17T22:15:39.164Z,12.00
2019-05-17T22:18:06.834Z,12.87
2019-05-17T22:20:34.485Z,13.63
2019-05-17T22:23:02.235Z,13.13
2019-05-17T22:25:29.908Z,12.90
2019-05-17T22:27:57.601Z,13.73
2019-05-17T22:30:25.393Z,12.73
2019-05-17T22:32:53.052Z,13.40
2019-05-17T22:35:20.730Z,13.47
2019-05-17T22:37:48.383Z,13.93
2019-05-17T22:40:16.092Z,14.07
2019-05-17T22:42:43.821Z,13.17
2019-05-17T22:45:11.550Z,15.93
2019-05-17T22:47:39.204Z,13.30
2019-05-17T22:50:06.872Z,12.70
2019-05-17T22:52:34.530Z,12.93
2019-05-17T22:55:02.221Z,13.73
2019-05-17T22:57:29.879Z,12.53
2019-05-17T22:59:57.539Z,13.37
2019-05-17T23:02:25.194Z,13.07
2019-05-17T23:04:52.860Z,12.70
2019-05-17T23:07:20.524Z,12.63
2019-05-17T23:09:48.199Z,12.83
2019-05-17T23:12:15.848Z,13.60
2019-05-17T23:14:43.555Z,13.37
2019-05-17T23:17:11.215Z,13.70
2019-05-17T23:19:38.877Z,12.20
2019-05-17T23:22:06.538Z,15.73
2019-05-17T23:24:34.205Z,13.40
2019-05-17T23:27:01.868Z,15.23
2019-05-17T23:29:29.749Z,13.20
2019-05-17T23:31:57.469Z,14.77
2019-05-17T23:34:25.122Z,14.63
2019-05-17T23:36:52.789Z,14.60
2019-05-17T23:39:20.516Z,14.00
2019-05-17T23:41:48.187Z,16.40
2019-05-17T23:44:15.862Z,14.97
2019-05-17T23:46:43.561Z,13.87
2019-05-17T23:49:11.227Z,13.30
2019-05-17T23:51:38.877Z,17.93
2019-05-17T23:54:06.536Z,16.03
2019-05-17T23:56:34.194Z,14.43
2019-05-17T23:59:01.894Z,15.27
